AirNav   Everest Fuels
 
 404 users online  

94PN Wellspan York Hospital Heliport
York, Pennsylvania, USA

GOING TO YORK?


FAA INFORMATION EFFECTIVE 18 JUNE 2020

Location

FAA Identifier: 94PN
Lat/Long: 39-56-41.3600N 076-43-05.5700W
39-56.689333N 076-43.092833W
39.9448222,-76.7182139
(estimated)
Elevation: 483 ft. / 147 m (estimated)
Variation: 10W (1985)
Time zone: UTC -4 (UTC -5 during Standard Time)
Zip code: 17403

Heliport Operations

Heliport use: Private use, MEDICAL USE.
Activation date: 08/1982
Control tower: no
ARTCC: NEW YORK CENTER
FSS: WILLIAMSPORT FLIGHT SERVICE STATION
Attendance: CONTINUOUS
Wind indicator: yes
Segmented circle: no
Lights: CALL TO ACTVT LGTS - 717-851-4444.

Heliport Communications

WX ASOS at THV (7 nm W): 119.275 (717-792-5529)
WX ASOS at MDT (15 nm N): 118.8 (717-944-1372)
WX ASOS at CXY (17 nm N): PHONE 717-770-0880

Nearby radio navigation aids

VOR radial/distance  VOR name  Freq  Var
LRPr251/22.3LANCASTER VOR/DME117.3009W
HARr153/26.8HARRISBURG VORTAC112.5010W
EMIr032/29.5WESTMINSTER VORTAC117.9008W
RAVr199/36.9RAVINE VORTAC114.6011W

 
NDB name  Hdg/Dist  Freq  Var  ID
BELLGROVE204/30.432810WBZJ -... --.. .---
ELLICOTT015/39.537111WFND ..-. -. -..

Heliport Services

Runway Information

Helipad H1

Dimensions: 70 x 70 ft. / 21 x 21 m
Surface: concrete
Runway edge lights: STRB
Latitude: 39-56.689333N
Longitude: 076-43.092833W
Elevation: 483.0 ft.
Traffic pattern: leftleft

Heliport Ownership and Management from official FAA records

Ownership: Privately-owned
Owner: CHRIS KRICHTEN
1001 S GEORGE ST
YORK, PA 17403
Phone (717) 851-5055
Manager: CHRIS KRICHTEN
1001 S GEORGE ST
YORK, PA 17403
Phone (717) 851-5055

Additional Remarks

A52-H1 BLDGS N TO NE 40 FT FROM EDGE OF FATO.
APCHS FROM W AND S TO ELEVATED HELI.
FOR CD CTC HARRISBURG APCH AT 800-932-0712.

Instrument Procedures

There are no published instrument procedures at 94PN.

Some nearby airports with instrument procedures:

KTHV - York Airport (7 nm W)
N71 - Donegal Springs Airpark (11 nm NE)
KMDT - Harrisburg International Airport (15 nm N)
KCXY - Capital City Airport (17 nm N)
58N - Reigle Field Airport (22 nm N)
 
Loc | Ops | Rwys | IFR | FBO | Links
Com | Nav | Svcs | Stats | Notes
Area around 94PN (Wellspan York Hospital Heliport)
 
Road maps at: MapQuest Bing Google
 
Aerial photo
WARNING: Photo may not be current or correct
Aerial photo of 94PN (Wellspan York Hospital Heliport)
Photo by David Newcomer
looking northeast

Do you have a better or more recent aerial photo of Wellspan York Hospital Heliport that you would like to share? If so, please send us your photo.

 
Sectional chart

 
Airport distance calculator
Flying to Wellspan York Hospital Heliport? Find the distance to fly.

From to 94PN

Sunrise and sunset
Times for 05-Jul-2020
 Local
(UTC-4)
 Zulu
(UTC)
Morning civil twilight05:1309:13
Sunrise05:4609:46
Sunset20:3800:38
Evening civil twilight21:1001:10

Current date and time
Zulu (UTC)  05-Jul-2020 05:21:27
Local (UTC-4)  05-Jul-2020 01:21:27
 
METAR
KTHV 
8nm W 
050453Z AUTO 00000KT 5SM BR CLR 21/18 A2996 RMK AO2 SLP143 T02060183 403280183 $
KMDT 
15nm N 
050456Z 00000KT 10SM CLR 26/19 A2994 RMK AO2 SLP136 T02610194 403440228
KCXY 
17nm N 
050456Z AUTO 23004KT 9SM CLR 23/18 A2995 RMK AO2 SLP139 T02280178 403440217
TAF
KMDT 
15nm N 
050320Z 0503/0524 VRB04KT P6SM FEW090 FM051300 35007KT P6SM SCT060
NOTAMs
Click for the latest NOTAMs
NOTAMs are issued by the DoD/FAA and will open in a separate window not controlled by AirNav.

 

 
 

Would you like to see your business listed on this page?

 If your business provides an interesting product or service to pilots, flight crews, aircraft, or users of the Wellspan York Hospital Heliport, you should consider listing it here.  To start the listing process, click on the button below
 
Add a business
 

Other Pages about Wellspan York Hospital Heliport

Update a link
 
Copyright © AirNav, LLC. All rights reserved. Privacy Policy  Contact